Time;durP1;ratioP1;P1;durP2;ratioP2;P2;SDS_P1;SDS_P2;PMS_P1;PMS_P2;Temp;Humidity;BMP_temperature;BMP_pressure;BME280_temperature;BME280_humidity;BME280_pressure;Samples;Min_cycle;Max_cycle;Signal;HPM_P1;HPM_P2
2021/06/10 00:01:29;;;;;;;14.73;13.30;;;;;;;22.67;56.00;100537.00;5084291;28;20460;-62
2021/06/10 00:03:56;;;;;;;14.55;13.30;;;;;;;22.64;56.29;100543.47;5080086;28;20086;-62
2021/06/10 00:06:22;;;;;;;15.50;14.13;;;;;;;22.60;57.20;100543.91;5081921;28;20043;-62
2021/06/10 00:08:49;;;;;;;18.77;17.05;;;;;;;22.42;57.32;100542.00;5080755;28;20044;-62
2021/06/10 00:11:16;;;;;;;16.50;15.15;;;;;;;22.43;57.19;100538.38;5084431;28;20036;-61
2021/06/10 00:13:43;;;;;;;17.08;15.50;;;;;;;22.40;57.87;100532.50;5080899;28;20548;-62
2021/06/10 00:16:10;;;;;;;16.63;15.05;;;;;;;22.41;57.78;100537.66;5079713;28;20135;-62
2021/06/10 00:18:37;;;;;;;16.52;15.00;;;;;;;22.35;58.12;100538.25;5081184;28;21028;-63
2021/06/10 00:21:04;;;;;;;15.52;14.13;;;;;;;22.39;57.93;100531.69;5080169;28;20049;-62
2021/06/10 00:23:31;;;;;;;16.75;15.18;;;;;;;22.40;57.26;100530.69;5079047;28;20040;-63
2021/06/10 00:25:58;;;;;;;17.88;16.33;;;;;;;22.28;58.03;100534.50;5080170;28;20555;-63
2021/06/10 00:28:25;;;;;;;16.00;14.68;;;;;;;22.22;57.79;100535.09;5082880;28;20035;-62
2021/06/10 00:30:51;;;;;;;17.98;15.93;;;;;;;22.16;58.17;100533.03;5084040;28;20036;-63
2021/06/10 00:33:18;;;;;;;18.30;16.05;;;;;;;22.20;58.16;100543.19;5083457;28;20044;-63
2021/06/10 00:35:45;;;;;;;16.60;15.07;;;;;;;22.22;58.25;100543.06;5080685;28;20043;-63
2021/06/10 00:38:12;;;;;;;16.13;14.65;;;;;;;22.18;58.17;100542.50;5081353;28;20824;-63
2021/06/10 00:40:38;;;;;;;16.25;14.85;;;;;;;22.15;58.23;100542.78;5081808;28;20506;-63
2021/06/10 00:43:05;;;;;;;16.35;14.85;;;;;;;22.09;58.29;100545.16;5081360;28;20040;-63
2021/06/10 00:45:32;;;;;;;17.67;14.75;;;;;;;22.10;58.41;100538.84;5082702;28;20047;-63
2021/06/10 00:47:59;;;;;;;15.45;13.98;;;;;;;22.09;58.45;100547.81;5079915;28;20086;-63
2021/06/10 00:50:34;;;;;;;17.55;15.77;;;;;;;21.91;59.18;100545.06;5086065;28;20043;-63
2021/06/10 00:53:01;;;;;;;17.02;15.25;;;;;;;21.88;59.74;100543.50;5084909;28;20390;-63
2021/06/10 00:55:28;;;;;;;18.10;16.40;;;;;;;21.82;60.09;100540.59;5079589;28;20044;-63
2021/06/10 00:57:55;;;;;;;19.42;17.67;;;;;;;21.75;60.29;100535.03;5082218;28;20391;-64
2021/06/10 01:00:23;;;;;;;20.50;18.75;;;;;;;21.74;60.15;100543.13;5082542;28;20082;-63
2021/06/10 01:02:50;;;;;;;20.02;18.23;;;;;;;21.79;60.27;100540.91;5081426;28;20044;-63
2021/06/10 01:05:17;;;;;;;22.33;20.35;;;;;;;21.75;60.32;100537.69;5084068;28;20411;-63
2021/06/10 01:08:04;;;;;;;23.15;20.85;;;;;;;21.75;60.30;100539.50;5078397;28;20044;-63
2021/06/10 01:10:48;;;;;;;21.25;19.45;;;;;;;21.69;61.09;100536.44;5084393;28;20036;-63
2021/06/10 01:13:45;;;;;;;22.92;20.70;;;;;;;21.61;61.17;100538.09;5080281;28;20063;-62
2021/06/10 01:16:18;;;;;;;23.13;21.15;;;;;;;21.57;61.16;100539.34;5086919;28;20043;-62
2021/06/10 01:18:47;;;;;;;23.88;21.05;;;;;;;21.60;61.07;100547.03;5083588;28;20036;-62
2021/06/10 01:21:17;;;;;;;21.77;19.75;;;;;;;21.61;60.83;100543.41;5088294;28;20101;-62
2021/06/10 01:23:43;;;;;;;22.17;20.00;;;;;;;21.64;60.72;100543.13;5086048;28;20040;-62
2021/06/10 01:26:16;;;;;;;22.42;20.20;;;;;;;21.49;61.07;100549.84;5083648;28;20036;-62
2021/06/10 01:28:44;;;;;;;23.60;21.60;;;;;;;21.37;61.43;100547.31;5086479;28;20039;-63
2021/06/10 01:31:14;;;;;;;22.85;18.95;;;;;;;21.26;61.37;100552.72;5082931;28;20056;-62
2021/06/10 01:33:47;;;;;;;22.08;19.88;;;;;;;21.34;61.32;100552.06;5082196;28;20150;-62
2021/06/10 01:36:35;;;;;;;22.00;19.42;;;;;;;21.35;60.92;100551.06;5088806;28;20410;-62
2021/06/10 01:39:07;;;;;;;20.10;18.25;;;;;;;21.39;60.71;100541.88;5081385;28;20043;-62
2021/06/10 01:41:35;;;;;;;19.70;18.00;;;;;;;21.35;61.29;100546.59;5086894;28;20040;-63
2021/06/10 01:44:03;;;;;;;20.70;19.00;;;;;;;21.37;60.89;100543.84;5083349;28;20074;-61
2021/06/10 01:46:32;;;;;;;20.50;18.80;;;;;;;21.39;60.67;100540.06;5084644;28;22347;-61
2021/06/10 01:49:00;;;;;;;21.45;19.45;;;;;;;21.33;60.90;100555.69;5088215;28;20056;-62
2021/06/10 01:51:31;;;;;;;21.40;19.50;;;;;;;21.34;60.69;100558.19;5082356;28;20048;-62
2021/06/10 01:54:01;;;;;;;21.02;19.02;;;;;;;21.34;60.91;100562.66;5084754;28;20043;-62
2021/06/10 01:56:30;;;;;;;20.15;18.20;;;;;;;21.30;61.01;100558.59;5089386;28;20051;-62
2021/06/10 01:58:57;;;;;;;18.30;16.55;;;;;;;21.29;60.94;100551.59;5082959;28;20040;-62
2021/06/10 02:01:26;;;;;;;19.50;17.85;;;;;;;21.26;60.88;100560.69;5086960;28;20063;-61
2021/06/10 02:03:56;;;;;;;18.75;16.92;;;;;;;21.25;61.01;100558.16;5070725;28;20449;-62
2021/06/10 02:06:25;;;;;;;16.88;15.27;;;;;;;21.21;60.93;100557.59;5082793;28;20040;-62
2021/06/10 02:08:52;;;;;;;19.55;17.85;;;;;;;21.16;61.32;100549.22;5086856;28;20059;-63
2021/06/10 02:11:19;;;;;;;21.00;16.88;;;;;;;21.14;61.65;100548.50;5089396;28;20109;-64
2021/06/10 02:13:48;;;;;;;18.25;16.60;;;;;;;21.17;61.18;100546.44;5087616;28;20068;-63
2021/06/10 02:16:16;;;;;;;21.48;16.63;;;;;;;21.22;61.23;100539.88;5088534;28;20491;-63
2021/06/10 02:18:45;;;;;;;18.50;16.52;;;;;;;21.23;61.86;100549.50;5084695;28;20433;-64
2021/06/10 02:21:13;;;;;;;18.00;16.20;;;;;;;21.14;62.21;100545.84;5082778;28;20048;-63
2021/06/10 02:23:43;;;;;;;17.60;15.90;;;;;;;21.16;62.22;100549.22;5082913;28;20536;-64
2021/06/10 02:26:11;;;;;;;20.40;18.42;;;;;;;21.19;61.84;100554.25;5083995;28;20451;-64
2021/06/10 02:28:38;;;;;;;18.33;16.50;;;;;;;21.14;62.00;100549.34;5085425;28;20494;-63
2021/06/10 02:31:07;;;;;;;18.88;17.17;;;;;;;21.15;62.09;100547.56;5089712;28;20553;-62
2021/06/10 02:33:40;;;;;;;16.83;15.23;;;;;;;21.10;62.42;100544.47;5094088;28;20048;-62
2021/06/10 02:36:08;;;;;;;17.95;16.23;;;;;;;21.07;62.13;100550.88;5101804;28;20040;-62
2021/06/10 02:38:38;;;;;;;17.83;16.25;;;;;;;21.12;61.83;100558.44;5113115;28;20040;-63
2021/06/10 02:41:10;;;;;;;17.40;15.25;;;;;;;21.16;61.93;100562.47;5095560;28;20513;-63
2021/06/10 02:43:39;;;;;;;17.23;15.50;;;;;;;21.18;61.43;100568.47;5109089;28;20047;-63
2021/06/10 02:46:09;;;;;;;19.33;15.23;;;;;;;21.11;61.26;100567.34;5102312;28;20387;-62
2021/06/10 02:48:37;;;;;;;17.48;15.35;;;;;;;21.15;61.24;100568.75;5110034;28;20048;-62
2021/06/10 02:51:05;;;;;;;16.98;15.38;;;;;;;21.15;61.30;100574.91;5087657;28;20044;-63
2021/06/10 02:53:32;;;;;;;18.02;16.10;;;;;;;21.13;61.31;100576.00;5111925;28;20043;-61
2021/06/10 02:56:01;;;;;;;16.35;14.85;;;;;;;20.91;62.27;100572.59;5112003;28;20044;-62
2021/06/10 02:58:29;;;;;;;17.60;15.80;;;;;;;20.95;62.20;100582.94;5113698;28;20039;-62
2021/06/10 03:00:58;;;;;;;18.83;16.98;;;;;;;20.91;62.53;100583.19;5107558;28;20127;-62
2021/06/10 03:03:25;;;;;;;21.80;17.30;;;;;;;20.88;62.00;100587.94;5103994;28;20126;-62
2021/06/10 03:05:56;;;;;;;18.75;17.15;;;;;;;20.86;62.52;100588.06;5109769;28;20121;-63
2021/06/10 03:08:24;;;;;;;18.65;17.08;;;;;;;20.85;62.23;100586.38;5089966;28;20048;-62
2021/06/10 03:10:51;;;;;;;19.23;17.33;;;;;;;20.83;62.62;100591.00;5111666;28;20051;-62
2021/06/10 03:13:19;;;;;;;20.17;17.80;;;;;;;20.83;62.42;100588.34;5111522;28;20040;-62
2021/06/10 03:15:47;;;;;;;21.00;19.00;;;;;;;20.72;62.86;100588.44;5093420;28;20047;-62
2021/06/10 03:18:16;;;;;;;21.60;19.48;;;;;;;20.70;63.30;100585.06;5077540;28;20134;-63
2021/06/10 03:20:43;;;;;;;20.05;18.00;;;;;;;20.69;63.20;100578.09;5081842;28;20043;-61
2021/06/10 03:23:11;;;;;;;21.45;18.75;;;;;;;20.58;63.57;100575.56;5084004;28;20040;-61
2021/06/10 03:25:39;;;;;;;19.23;17.52;;;;;;;20.67;63.44;100572.94;5086151;28;20108;-61
2021/06/10 03:28:06;;;;;;;19.88;17.98;;;;;;;20.62;63.48;100572.50;5085510;28;20376;-60
2021/06/10 03:30:35;;;;;;;19.15;17.63;;;;;;;20.65;63.53;100574.88;5080379;28;20032;-61
2021/06/10 03:33:05;;;;;;;20.92;19.10;;;;;;;20.65;63.64;100566.09;5081015;28;20036;-61
2021/06/10 03:35:36;;;;;;;20.08;18.08;;;;;;;20.54;63.98;100574.13;5087704;28;20043;-61
2021/06/10 03:38:04;;;;;;;22.13;17.55;;;;;;;20.51;64.23;100569.13;5084128;28;20046;-62
2021/06/10 03:40:32;;;;;;;20.33;18.42;;;;;;;20.55;63.49;100568.69;5088844;28;20039;-62
2021/06/10 03:42:59;;;;;;;19.50;17.70;;;;;;;20.62;63.90;100571.69;5082326;28;20218;-63
2021/06/10 03:45:27;;;;;;;19.25;17.38;;;;;;;20.63;63.55;100568.88;5082424;28;20032;-64
2021/06/10 03:47:54;;;;;;;19.77;17.15;;;;;;;20.66;63.83;100570.41;5084861;28;20044;-64
2021/06/10 03:50:22;;;;;;;18.45;16.63;;;;;;;20.57;63.79;100577.38;5079940;28;20514;-64
2021/06/10 03:52:49;;;;;;;17.63;16.02;;;;;;;20.60;63.63;100569.13;5082273;28;20495;-64
2021/06/10 03:55:16;;;;;;;24.73;16.85;;;;;;;20.72;63.50;100577.84;5067210;28;20036;-63
2021/06/10 03:57:42;;;;;;;20.75;18.70;;;;;;;20.72;63.39;100577.00;5079540;28;20041;-63
2021/06/10 04:00:09;;;;;;;20.33;18.25;;;;;;;20.74;63.15;100583.84;5083727;28;20040;-64
2021/06/10 04:02:37;;;;;;;21.45;19.33;;;;;;;20.71;63.36;100589.41;5085523;28;20063;-63
2021/06/10 04:05:05;;;;;;;21.30;18.98;;;;;;;20.62;63.91;100576.97;5085661;28;20035;-63
2021/06/10 04:07:32;;;;;;;21.08;19.05;;;;;;;20.62;63.89;100584.94;5083413;28;20110;-63
2021/06/10 04:09:58;;;;;;;20.73;17.98;;;;;;;20.62;64.13;100583.09;5080624;28;20043;-63
2021/06/10 04:12:25;;;;;;;23.83;19.13;;;;;;;20.69;64.28;100586.06;5078508;28;20077;-61
2021/06/10 04:14:52;;;;;;;20.27;18.27;;;;;;;20.68;64.30;100584.38;5068925;28;20032;-61
2021/06/10 04:17:19;;;;;;;19.70;17.95;;;;;;;20.73;63.98;100590.13;5084198;28;20048;-61
2021/06/10 04:19:46;;;;;;;19.35;17.30;;;;;;;20.77;64.27;100591.50;5082106;28;20550;-62
2021/06/10 04:22:13;;;;;;;19.40;17.63;;;;;;;20.86;63.91;100587.22;5080161;28;20048;-61
2021/06/10 04:24:40;;;;;;;20.92;18.25;;;;;;;20.92;63.17;100584.88;5080506;28;20106;-62
2021/06/10 04:27:07;;;;;;;18.45;16.58;;;;;;;20.93;62.85;100585.72;5083003;28;20047;-61
2021/06/10 04:29:34;;;;;;;21.48;17.55;;;;;;;20.96;63.13;100589.91;5087280;28;20035;-61
2021/06/10 04:32:01;;;;;;;18.88;17.20;;;;;;;20.94;63.42;100590.06;5083241;28;20406;-62
2021/06/10 04:34:28;;;;;;;17.17;15.55;;;;;;;20.93;64.13;100589.22;5086032;28;20043;-61
2021/06/10 04:36:55;;;;;;;19.33;17.45;;;;;;;21.03;63.14;100596.34;5088593;28;20044;-62
2021/06/10 04:39:22;;;;;;;19.98;17.23;;;;;;;21.09;63.06;100595.78;5091060;28;20032;-61
2021/06/10 04:41:48;;;;;;;17.92;16.02;;;;;;;21.14;62.44;100599.72;5095633;28;20371;-61
2021/06/10 04:44:15;;;;;;;20.63;18.52;;;;;;;21.22;63.53;100600.88;5111815;28;20048;-62
2021/06/10 04:46:42;;;;;;;19.30;16.88;;;;;;;21.22;63.72;100599.03;5111691;28;20043;-61
2021/06/10 04:49:11;;;;;;;19.38;17.50;;;;;;;21.17;63.30;100614.53;5106469;28;20039;-61
2021/06/10 04:51:38;;;;;;;20.75;18.75;;;;;;;21.21;63.60;100602.69;5108370;28;20043;-61
2021/06/10 04:54:05;;;;;;;23.10;18.90;;;;;;;21.26;62.52;100616.38;5111548;28;20042;-62
2021/06/10 04:56:32;;;;;;;21.38;19.13;;;;;;;21.43;61.90;100610.41;5109591;28;20043;-62
2021/06/10 04:58:59;;;;;;;20.00;18.17;;;;;;;21.61;61.11;100607.91;5113740;28;20040;-61
2021/06/10 05:01:25;;;;;;;21.20;19.30;;;;;;;21.85;61.13;100604.00;5112671;28;20474;-62
2021/06/10 05:03:52;;;;;;;20.13;18.13;;;;;;;21.98;59.87;100607.19;5115473;28;20074;-62
2021/06/10 05:06:19;;;;;;;20.45;18.50;;;;;;;22.15;59.94;100603.84;5112295;28;20490;-64
2021/06/10 05:08:46;;;;;;;22.58;17.27;;;;;;;22.32;59.32;100604.09;5106434;28;20043;-63
2021/06/10 05:11:13;;;;;;;24.33;17.83;;;;;;;22.52;58.70;100596.91;5109498;28;20044;-63
2021/06/10 05:13:40;;;;;;;19.48;17.27;;;;;;;22.78;57.77;100599.75;5097281;28;20039;-61
2021/06/10 05:16:07;;;;;;;19.02;17.27;;;;;;;23.08;57.26;100598.66;5096478;28;20047;-59
2021/06/10 05:18:34;;;;;;;17.58;15.82;;;;;;;23.36;56.30;100604.78;5096266;28;20222;-62
2021/06/10 05:21:04;;;;;;;17.55;15.63;;;;;;;23.58;55.51;100600.81;5105193;28;20067;-63
2021/06/10 05:23:31;;;;;;;17.30;15.73;;;;;;;23.85;55.13;100603.41;5099244;28;20034;-62
2021/06/10 05:25:58;;;;;;;17.17;15.23;;;;;;;24.13;54.34;100601.50;5093898;28;20482;-63
2021/06/10 05:28:25;;;;;;;18.05;16.50;;;;;;;24.22;54.30;100602.38;5096033;28;20044;-61
2021/06/10 05:30:52;;;;;;;17.17;15.77;;;;;;;24.42;53.53;100609.19;5093380;28;20490;-66
2021/06/10 05:33:20;;;;;;;23.90;16.83;;;;;;;24.27;54.74;100608.06;5096061;28;20044;-67
2021/06/10 05:35:46;;;;;;;20.60;18.80;;;;;;;24.01;57.49;100606.22;5106375;28;20036;-63
2021/06/10 05:38:13;;;;;;;18.67;16.88;;;;;;;24.09;57.77;100615.28;5109424;28;20044;-64
2021/06/10 05:40:43;;;;;;;19.17;17.35;;;;;;;24.06;57.23;100619.06;5108275;28;20058;-65
2021/06/10 05:43:09;;;;;;;20.73;18.55;;;;;;;24.35;57.21;100605.50;5112177;28;20089;-64
2021/06/10 05:45:36;;;;;;;17.17;15.57;;;;;;;24.43;56.65;100615.34;5106918;28;20051;-64
2021/06/10 05:48:04;;;;;;;19.45;17.15;;;;;;;24.62;56.57;100609.81;5106613;28;20048;-64
2021/06/10 05:50:31;;;;;;;18.85;16.83;;;;;;;24.96;55.86;100617.78;5108804;28;20620;-64
2021/06/10 05:52:59;;;;;;;18.20;15.98;;;;;;;25.07;54.50;100611.34;5107316;28;20359;-61
2021/06/10 05:55:26;;;;;;;16.83;15.13;;;;;;;25.63;53.83;100611.66;5108187;28;20039;-63
2021/06/10 05:57:53;;;;;;;15.50;14.00;;;;;;;26.04;52.33;100610.66;5095153;28;20390;-61
2021/06/10 06:00:21;;;;;;;23.95;16.05;;;;;;;26.31;51.95;100619.31;5101184;28;20386;-61
2021/06/10 06:02:48;;;;;;;17.05;15.35;;;;;;;26.32;51.50;100616.50;5105372;28;20035;-61
2021/06/10 06:05:15;;;;;;;19.08;14.00;;;;;;;26.55;49.92;100618.47;5101567;28;20064;-61
2021/06/10 06:07:41;;;;;;;14.07;12.30;;;;;;;26.96;47.47;100627.19;5098697;28;20032;-61
2021/06/10 06:10:09;;;;;;;11.15;10.05;;;;;;;27.21;46.49;100619.91;5103165;28;20042;-61
2021/06/10 06:12:39;;;;;;;12.32;11.05;;;;;;;27.30;44.72;100631.41;5103749;28;20100;-61
2021/06/10 06:15:08;;;;;;;11.63;10.40;;;;;;;27.42;43.79;100632.66;5107841;28;20050;-61
2021/06/10 06:17:35;;;;;;;14.30;10.60;;;;;;;27.57;43.32;100635.41;5106207;28;20036;-60
2021/06/10 06:20:03;;;;;;;10.77;9.52;;;;;;;27.50;43.65;100632.63;5106459;28;20069;-61
2021/06/10 06:22:30;;;;;;;13.00;11.00;;;;;;;27.44;42.41;100635.19;5105616;28;20043;-61
2021/06/10 06:24:57;;;;;;;11.68;10.60;;;;;;;27.22;43.79;100636.78;5106148;28;20039;-61
2021/06/10 06:27:24;;;;;;;14.00;12.55;;;;;;;27.12;43.96;100643.22;5103417;28;20036;-61
2021/06/10 06:29:50;;;;;;;13.25;10.68;;;;;;;27.01;44.80;100650.75;5100997;28;20051;-61
2021/06/10 06:32:17;;;;;;;13.07;11.40;;;;;;;27.17;44.32;100650.72;5106158;28;20043;-61
2021/06/10 06:34:44;;;;;;;17.33;13.35;;;;;;;26.94;44.11;100647.09;5106912;28;20039;-61
2021/06/10 06:37:13;;;;;;;15.43;12.13;;;;;;;27.28;43.87;100652.16;5100419;28;20522;-61
2021/06/10 06:39:39;;;;;;;13.65;12.25;;;;;;;27.82;42.93;100653.00;5068783;28;20063;-61
2021/06/10 06:42:06;;;;;;;15.75;14.18;;;;;;;28.15;45.32;100656.25;5081932;28;20044;-61
2021/06/10 06:44:33;;;;;;;16.30;14.65;;;;;;;28.66;45.10;100648.41;5079889;28;20048;-61
2021/06/10 06:47:00;;;;;;;18.58;16.98;;;;;;;28.22;45.26;100661.72;5086920;28;20487;-62
2021/06/10 06:49:27;;;;;;;17.75;15.45;;;;;;;27.84;45.42;100659.00;5078760;28;20105;-61
2021/06/10 06:51:54;;;;;;;18.58;16.88;;;;;;;27.53;46.84;100664.38;5083502;28;20044;-61
2021/06/10 06:54:21;;;;;;;17.15;15.60;;;;;;;27.39;46.72;100657.13;5080768;28;20040;-61
2021/06/10 06:56:47;;;;;;;15.98;14.63;;;;;;;27.96;46.26;100655.91;5082599;28;20036;-62
2021/06/10 06:59:14;;;;;;;17.73;16.13;;;;;;;28.02;45.04;100665.91;5079526;28;20035;-62
2021/06/10 07:01:41;;;;;;;17.83;16.25;;;;;;;27.09;47.12;100667.63;5081826;28;20048;-62
2021/06/10 07:04:08;;;;;;;17.30;15.60;;;;;;;27.32;48.34;100672.19;5082277;28;20511;-60
2021/06/10 07:06:34;;;;;;;17.17;15.55;;;;;;;27.11;47.29;100673.66;5087819;28;20033;-59
2021/06/10 07:09:02;;;;;;;16.45;15.00;;;;;;;27.44;46.34;100673.50;5095419;28;20039;-60
2021/06/10 07:11:33;;;;;;;14.95;13.55;;;;;;;27.28;45.87;100685.13;5089802;28;20486;-61
2021/06/10 07:14:00;;;;;;;15.73;14.23;;;;;;;27.26;44.54;100681.75;5089369;28;20044;-60
2021/06/10 07:16:27;;;;;;;14.63;13.15;;;;;;;27.80;44.56;100684.50;5094176;28;20417;-59
2021/06/10 07:18:54;;;;;;;18.45;16.83;;;;;;;27.87;44.26;100685.47;5096513;28;20069;-60
2021/06/10 07:21:21;;;;;;;18.05;16.15;;;;;;;27.46;43.54;100690.19;5093652;28;20048;-61
2021/06/10 07:23:48;;;;;;;19.58;17.58;;;;;;;27.31;44.79;100697.31;5093472;28;20044;-62
2021/06/10 07:26:15;;;;;;;23.63;19.02;;;;;;;27.00;45.88;100694.56;5094147;28;20453;-62
2021/06/10 07:28:41;;;;;;;20.30;17.58;;;;;;;27.27;46.80;100693.31;5074888;28;20043;-61
2021/06/10 07:31:09;;;;;;;24.42;17.75;;;;;;;27.38;45.63;100698.28;5091364;28;20048;-61
2021/06/10 07:33:36;;;;;;;18.13;16.17;;;;;;;27.61;45.21;100701.00;5083216;28;20130;-62
2021/06/10 07:36:03;;;;;;;23.48;16.60;;;;;;;27.36;44.48;100698.44;5082993;28;20037;-62
2021/06/10 07:38:29;;;;;;;24.77;17.85;;;;;;;26.99;45.82;100701.75;5085057;28;20047;-60
2021/06/10 07:40:56;;;;;;;19.20;17.08;;;;;;;27.06;45.99;100704.56;5091146;28;20070;-60
2021/06/10 07:43:23;;;;;;;18.17;16.45;;;;;;;27.64;44.64;100696.09;5093184;28;20402;-60
2021/06/10 07:45:49;;;;;;;18.20;13.82;;;;;;;28.18;44.14;100698.78;5092925;28;20085;-59
2021/06/10 07:48:16;;;;;;;15.30;13.48;;;;;;;28.67;43.06;100698.34;5093163;28;20040;-59
2021/06/10 07:50:44;;;;;;;18.67;16.80;;;;;;;28.48;43.22;100698.88;5073815;28;20041;-59
2021/06/10 07:53:10;;;;;;;17.33;15.82;;;;;;;28.56;43.25;100690.75;5093021;28;20046;-59
2021/06/10 07:55:40;;;;;;;16.00;13.55;;;;;;;30.10;40.94;100689.78;5092753;28;20401;-59
2021/06/10 07:58:07;;;;;;;25.58;14.40;;;;;;;30.08;40.15;100691.81;5093393;28;20437;-59
2021/06/10 08:00:34;;;;;;;14.40;12.82;;;;;;;30.83;38.33;100694.91;5094901;28;20032;-60
2021/06/10 08:03:01;;;;;;;16.38;14.77;;;;;;;30.54;38.34;100691.41;5090767;28;20047;-60
2021/06/10 08:05:29;;;;;;;16.13;14.63;;;;;;;30.52;38.15;100690.75;5092642;28;20044;-60
2021/06/10 08:07:56;;;;;;;14.63;12.10;;;;;;;31.34;37.05;100689.19;5092657;28;20070;-61
2021/06/10 08:10:23;;;;;;;11.93;10.85;;;;;;;30.99;36.21;100689.19;5092621;28;20107;-59
2021/06/10 08:12:50;;;;;;;14.90;13.45;;;;;;;30.80;37.14;100696.16;5094312;28;20054;-61
2021/06/10 08:15:18;;;;;;;12.15;11.15;;;;;;;30.88;37.67;100692.47;5093257;28;20032;-61
2021/06/10 08:17:44;;;;;;;14.43;11.15;;;;;;;30.96;36.33;100695.00;5075025;28;20402;-61
2021/06/10 08:20:12;;;;;;;9.93;9.07;;;;;;;31.14;36.26;100687.19;5093750;28;20047;-59
2021/06/10 08:22:40;;;;;;;11.55;10.55;;;;;;;31.20;35.79;100678.31;5093042;28;20036;-60
2021/06/10 08:25:08;;;;;;;10.73;9.73;;;;;;;31.26;35.44;100685.63;5092768;28;20039;-59
2021/06/10 08:27:35;;;;;;;12.52;9.50;;;;;;;30.77;35.38;100689.28;5092648;28;20036;-61
2021/06/10 08:30:05;;;;;;;10.40;9.25;;;;;;;30.87;35.81;100694.31;5089735;28;20494;-60
2021/06/10 08:32:32;;;;;;;10.00;9.10;;;;;;;30.68;35.51;100692.28;5094256;28;20067;-62
2021/06/10 08:34:59;;;;;;;13.20;9.23;;;;;;;30.50;36.01;100690.94;5092818;28;20097;-61
2021/06/10 08:37:26;;;;;;;9.80;8.93;;;;;;;30.23;36.78;100687.22;5092131;28;20542;-61
2021/06/10 08:39:53;;;;;;;9.80;8.48;;;;;;;30.86;36.16;100689.97;5091023;28;20039;-63
2021/06/10 08:42:19;;;;;;;11.77;10.65;;;;;;;30.61;35.41;100692.25;5090216;28;20406;-64
2021/06/10 08:44:48;;;;;;;12.20;10.98;;;;;;;29.91;36.48;100695.81;5073460;28;20130;-65
2021/06/10 08:47:20;;;;;;;10.93;9.82;;;;;;;29.86;37.19;100688.31;5091901;28;20040;-65
2021/06/10 08:49:49;;;;;;;13.25;9.85;;;;;;;29.61;38.77;100695.91;5091569;28;20051;-62
2021/06/10 08:52:16;;;;;;;11.82;10.07;;;;;;;29.60;37.97;100688.88;5091160;28;20063;-63
2021/06/10 08:54:43;;;;;;;11.75;10.30;;;;;;;29.55;38.36;100693.13;5091904;28;20051;-64
2021/06/10 08:57:10;;;;;;;14.88;10.38;;;;;;;30.09;37.71;100690.78;5091683;28;20040;-65
2021/06/10 08:59:37;;;;;;;14.82;10.38;;;;;;;29.64;37.81;100689.31;5091753;28;20044;-65
2021/06/10 09:02:08;;;;;;;9.00;8.20;;;;;;;30.19;37.48;100693.19;5089568;28;20042;-64
2021/06/10 09:04:35;;;;;;;11.15;8.90;;;;;;;30.19;37.91;100694.00;5090184;28;20047;-64
2021/06/10 09:07:04;;;;;;;14.05;11.70;;;;;;;29.25;39.19;100689.69;5092189;28;20036;-63
2021/06/10 09:09:39;;;;;;;21.75;11.82;;;;;;;29.72;38.90;100702.63;5091647;28;20421;-65
2021/06/10 09:12:09;;;;;;;19.85;11.68;;;;;;;29.02;39.33;100701.34;5091579;28;20047;-65
2021/06/10 09:14:59;;;;;;;9.95;8.93;;;;;;;29.40;39.07;100699.38;5091871;28;20043;-64
2021/06/10 09:17:38;;;;;;;13.07;10.25;;;;;;;29.29;39.75;100697.13;5091657;28;20136;-63
2021/06/10 09:20:20;;;;;;;12.02;10.80;;;;;;;29.30;40.01;100703.38;5092505;28;20409;-66
2021/06/10 09:22:50;;;;;;;12.23;10.98;;;;;;;29.28;39.88;100705.41;5091467;28;20044;-65
2021/06/10 09:25:20;;;;;;;12.00;10.73;;;;;;;29.32;39.60;100712.06;5092024;28;20098;-65
2021/06/10 09:28:02;;;;;;;14.10;12.68;;;;;;;28.62;40.55;100711.47;5091919;28;20124;-65
2021/06/10 09:30:51;;;;;;;13.40;12.20;;;;;;;28.76;40.58;100717.88;5091129;28;20040;-64
2021/06/10 09:33:20;;;;;;;13.93;12.65;;;;;;;28.98;40.35;100713.50;5091802;28;20106;-65
2021/06/10 09:35:48;;;;;;;12.73;11.25;;;;;;;28.75;41.34;100715.38;5095308;28;20054;-65
2021/06/10 09:38:21;;;;;;;14.20;12.73;;;;;;;28.52;41.27;100713.59;5073906;28;20044;-64
2021/06/10 09:40:51;;;;;;;11.32;10.13;;;;;;;28.46;42.10;100717.00;5090940;28;20050;-63
2021/06/10 09:43:20;;;;;;;13.05;11.68;;;;;;;28.23;41.11;100717.00;5095510;28;20040;-64
2021/06/10 09:45:52;;;;;;;15.27;11.88;;;;;;;28.43;39.70;100712.00;5093522;28;20056;-63
2021/06/10 09:48:31;;;;;;;10.98;9.85;;;;;;;28.61;40.03;100715.19;5094480;28;20040;-63
2021/06/10 09:50:58;;;;;;;10.02;8.77;;;;;;;28.97;40.17;100709.94;5094950;28;20127;-64
2021/06/10 09:53:28;;;;;;;9.57;8.57;;;;;;;29.07;40.11;100711.53;5094458;28;20064;-63
2021/06/10 09:55:58;;;;;;;11.63;10.43;;;;;;;28.85;40.79;100714.09;5095361;28;20494;-63
2021/06/10 09:58:41;;;;;;;13.32;10.90;;;;;;;28.34;40.82;100713.09;5095403;28;20044;-67
2021/06/10 10:01:11;;;;;;;13.80;12.48;;;;;;;28.26;41.28;100713.97;5097108;28;20040;-63
2021/06/10 10:03:42;;;;;;;12.82;11.15;;;;;;;28.36;41.36;100705.69;5095117;28;20654;-62
2021/06/10 10:06:20;;;;;;;12.30;11.07;;;;;;;28.45;40.71;100700.09;5097622;28;20051;-59
2021/06/10 10:08:59;;;;;;;14.75;13.25;;;;;;;28.20;40.64;100699.44;5094876;28;20044;-60
2021/06/10 10:11:27;;;;;;;13.60;12.20;;;;;;;28.37;41.08;100702.00;5096938;28;20455;-61
2021/06/10 10:13:56;;;;;;;12.52;11.10;;;;;;;28.39;41.78;100695.47;5096221;28;20081;-61
2021/06/10 10:16:26;;;;;;;11.07;9.98;;;;;;;28.16;42.11;100698.13;5095013;28;20044;-62
2021/06/10 10:18:54;;;;;;;12.32;8.98;;;;;;;28.47;42.00;100701.75;5094503;28;20040;-61
2021/06/10 10:21:29;;;;;;;12.95;10.15;;;;;;;28.54;40.25;100700.00;5092957;28;20036;-62
2021/06/10 10:24:04;;;;;;;10.10;9.10;;;;;;;28.43;40.38;100695.91;5095060;28;20048;-61
2021/06/10 10:26:32;;;;;;;10.38;9.13;;;;;;;28.34;42.08;100684.44;5094838;28;20048;-62
2021/06/10 10:29:01;;;;;;;10.82;9.40;;;;;;;28.14;42.89;100691.28;5096352;28;20038;-62
2021/06/10 10:31:29;;;;;;;11.70;10.55;;;;;;;28.16;40.37;100689.25;5096440;28;20097;-61
2021/06/10 10:33:57;;;;;;;9.65;8.70;;;;;;;28.44;40.25;100686.84;5097116;28;20475;-62
2021/06/10 10:36:32;;;;;;;13.82;10.48;;;;;;;28.14;40.11;100685.94;5104020;28;20047;-62
2021/06/10 10:39:01;;;;;;;11.05;8.27;;;;;;;28.55;40.18;100699.84;5104632;28;20441;-60
2021/06/10 10:41:29;;;;;;;13.95;12.20;;;;;;;28.56;39.89;100681.88;5084080;28;20050;-63
2021/06/10 10:44:11;;;;;;;17.45;11.63;;;;;;;28.32;40.04;100681.06;5081828;28;20036;-63
2021/06/10 10:46:38;;;;;;;10.43;8.98;;;;;;;28.73;40.28;100679.88;5081556;28;20036;-63
2021/06/10 10:49:21;;;;;;;12.98;10.43;;;;;;;28.73;40.22;100679.88;5081955;28;20372;-63
2021/06/10 10:51:48;;;;;;;12.63;11.38;;;;;;;28.64;40.27;100676.41;5082458;28;20086;-64
2021/06/10 10:54:36;;;;;;;12.82;11.68;;;;;;;28.63;40.82;100672.91;5085784;28;20091;-62
2021/06/10 10:57:04;;;;;;;14.52;13.02;;;;;;;28.54;40.25;100676.69;5080729;28;20041;-62
2021/06/10 10:59:46;;;;;;;14.50;10.80;;;;;;;28.63;41.28;100672.09;5082676;28;20040;-62
2021/06/10 11:02:19;;;;;;;12.38;11.10;;;;;;;28.73;39.96;100669.13;5088220;28;20068;-63
2021/06/10 11:04:57;;;;;;;14.50;13.00;;;;;;;28.63;41.43;100670.22;5101225;28;20489;-62
2021/06/10 11:07:34;;;;;;;15.02;13.52;;;;;;;28.47;41.28;100665.03;5106842;28;20047;-62
2021/06/10 11:10:05;;;;;;;15.75;14.05;;;;;;;28.49;42.20;100668.34;5094285;28;20040;-62
2021/06/10 11:12:41;;;;;;;19.17;17.08;;;;;;;28.49;42.01;100668.34;5094710;28;20054;-62
2021/06/10 11:15:26;;;;;;;21.23;15.18;;;;;;;28.32;43.12;100661.47;5094169;28;20407;-62
2021/06/10 11:17:55;;;;;;;18.27;14.05;;;;;;;28.35;42.79;100658.47;5094251;28;20043;-62